Silver Cloud — C6MQ5 — position and weather

sailwx.info

Track history (hours):
 
Tides and Currents Weather Stations Pressure Air Temp Water Temp Dewpoint Dewpoint Depression Visibility Wind Speed Wind Dir Waves Ship Positions

Silver Cloud

Operator: V Ships Leisure SAM

Last reported at 2016-May-01 06:17 UTC. Time now 2016-May-01 08:00 UTC.
Position N 37°50' E 015°17'.

Length 155 m; draft 5.7 m.

Type: Passenger vessel. MMSI: 309027000.

Date/timePositionNaut miles runAvg speedWind from/ knotsBaromVisibWave heightAir tempDewpointWater temp
2016-May-01 06:17N 37°50' E 015°17'0 0.0
2016-May-01 05:29N 37°50' E 015°17'4 4.1
2016-May-01 04:26N 37°52' E 015°22'910.4
2016-May-01 03:33N 37°59' E 015°29'1111.6
2016-May-01 02:33N 38°10' E 015°34'1414.2
2016-May-01 01:33N 38°24' E 015°37'1717.3
2016-May-01 00:33N 38°39' E 015°27'12017.1
2016-Apr-30 17:33N 40°25' E 014°14'92 4.8
2016-Apr-29 22:07N 41°21' E 012°37'814.3
2016-Apr-29 21:33N 41°26' E 012°28'1414.1
2016-Apr-29 20:33N 41°35' E 012°14'1414.1
2016-Apr-29 19:33N 41°46' E 012°02'112 4.8
2016-Apr-28 20:26N 42°50' E 009°58'1416.0
2016-Apr-28 19:34N 43°04' E 010°03'1616.1
2016-Apr-28 18:34N 43°19' E 010°08'1413.7
2016-Apr-28 17:33N 43°32' E 010°15'2 2.3
2016-Apr-28 16:33N 43°33' E 010°18'0 0.0
2016-Apr-28 15:33N 43°33' E 010°18'0 0.0
2016-Apr-28 14:33N 43°33' E 010°18'0 0.0
2016-Apr-28 13:33N 43°33' E 010°18'0 0.0
2016-Apr-28 12:33N 43°33' E 010°18'0 0.0
2016-Apr-28 11:33N 43°33' E 010°18'0 0.0
2016-Apr-28 10:30N 43°33' E 010°18'0 0.0
2016-Apr-28 09:32N 43°33' E 010°18'0 0.0
2016-Apr-28 08:32N 43°33' E 010°18'0 0.0
2016-Apr-28 07:32N 43°33' E 010°18'0 0.0
2016-Apr-28 06:32N 43°33' E 010°18'0 0.4
2016-Apr-28 05:33N 43°33' E 010°18'4 4.4
2016-Apr-28 04:33N 43°30' E 010°13'1010.0
2016-Apr-28 03:33N 43°30' E 009°59'1010.2
2016-Apr-28 02:33N 43°36' E 009°47'1111.0
2016-Apr-28 01:33N 43°45' E 009°38'1111.3
2016-Apr-28 00:33N 43°53' E 009°28'1111.0
2016-Apr-27 23:33N 44°02' E 009°18'1110.9
2016-Apr-27 22:33N 44°10' E 009°09'1111.0
2016-Apr-27 21:33N 44°19' E 008°59'6 5.9
2016-Apr-27 20:28N 44°25' E 008°55'0 0.0
2016-Apr-27 19:22N 44°25' E 008°55'0 0.0
2016-Apr-27 18:31N 44°25' E 008°55'0 0.0
2016-Apr-27 17:31N 44°25' E 008°55'0 0.0
2016-Apr-27 16:28N 44°25' E 008°55'0 0.0
2016-Apr-27 15:10N 44°25' E 008°55'0 0.0
2016-Apr-27 14:28N 44°25' E 008°55'0 0.0
2016-Apr-27 13:16N 44°25' E 008°55'0 0.0
2016-Apr-27 12:22N 44°25' E 008°55'0 0.0
2016-Apr-27 11:28N 44°25' E 008°55'0 0.0
2016-Apr-27 10:22N 44°25' E 008°55'0 0.0
2016-Apr-27 09:28N 44°25' E 008°55'0 0.0
2016-Apr-27 08:28N 44°25' E 008°55'0 0.0
2016-Apr-27 07:16N 44°25' E 008°55'0 0.0
2016-Apr-27 06:28N 44°25' E 008°55'0 0.0
2016-Apr-27 04:16N 44°25' E 008°55'0 0.0
2016-Apr-27 03:25N 44°25' E 008°55'0 0.0
2016-Apr-27 02:31N 44°25' E 008°55'0 0.0
2016-Apr-27 01:28N 44°25' E 008°55'0 0.0
2016-Apr-27 00:22N 44°25' E 008°55'0 0.0
2016-Apr-26 23:28N 44°25' E 008°55'0 0.0
2016-Apr-26 22:31N 44°25' E 008°55'0 0.0
2016-Apr-26 21:31N 44°25' E 008°55'0 0.0
2016-Apr-26 20:31N 44°25' E 008°55'0 0.0
2016-Apr-26 19:34N 44°25' E 008°55'0 0.0
2016-Apr-26 18:34N 44°25' E 008°55'0 0.0
2016-Apr-26 17:27N 44°25' E 008°55'0 0.0
2016-Apr-26 16:24N 44°25' E 008°55'0 0.0
2016-Apr-26 14:30N 44°25' E 008°55'0 0.0
2016-Apr-26 13:33N 44°25' E 008°55'0 0.0
2016-Apr-26 12:27N 44°25' E 008°55'0 0.0
2016-Apr-26 11:24N 44°25' E 008°55'0 0.0
2016-Apr-26 10:18N 44°25' E 008°55'0 0.0
2016-Apr-26 09:33N 44°25' E 008°55'0 0.0
2016-Apr-26 08:33N 44°25' E 008°55'0 0.0
2016-Apr-26 07:21N 44°25' E 008°55'0 0.0
2016-Apr-26 06:27N 44°25' E 008°55'0 0.0
2016-Apr-26 05:33N 44°25' E 008°55'6 5.6
2016-Apr-26 04:33N 44°20' E 008°59'7 7.3
2016-Apr-26 03:33N 44°14' E 008°53'7 7.0
2016-Apr-26 02:34N 44°09' E 008°46'6 6.0
2016-Apr-26 01:33N 44°06' E 008°38'48 6.6
2016-Apr-25 18:15N 43°44' E 007°39'4 6.3
2016-Apr-25 17:33N 43°44' E 007°33'4 4.0
2016-Apr-25 16:32N 43°44' E 007°27'1111.4
2016-Apr-25 15:33N 43°34' E 007°20'1413.8
2016-Apr-25 14:33N 43°30' E 007°02'2 2.3
2016-Apr-25 13:34N 43°32' E 007°01'0 0.0
2016-Apr-25 12:31N 43°32' E 007°01'0 0.1
2016-Apr-25 11:31N 43°32' E 007°01'0 0.0
2016-Apr-25 10:30N 43°32' E 007°01'0 0.0
2016-Apr-25 09:18N 43°32' E 007°01'0 0.0
2016-Apr-25 08:30N 43°32' E 007°01'0 0.0
2016-Apr-25 07:30N 43°32' E 007°01'0 0.0
2016-Apr-25 06:30N 43°32' E 007°01'1 0.5
2016-Apr-25 05:34N 43°31' E 007°01'1313.3
2016-Apr-25 04:34N 43°25' E 007°17'7218.1
2016-Apr-25 00:34N 43°13' E 008°55'1817.9
2016-Apr-24 23:33N 43°11' E 009°20'319 7.1
2016-Apr-23 02:30N 39°57' E 003°41'2912.0
2016-Apr-23 00:03N 40°19' E 003°17'612.4
2016-Apr-22 23:34N 40°24' E 003°12'1212.4
2016-Apr-22 22:34N 40°34' E 003°03'1212.0
2016-Apr-22 21:33N 40°43' E 002°52'1212.2
2016-Apr-22 20:33N 40°53' E 002°42'1212.2
2016-Apr-22 19:33N 41°02' E 002°32'1212.1
2016-Apr-22 18:33N 41°12' E 002°22'1212.2
2016-Apr-22 17:33N 41°21' E 002°11'1 1.1
2016-Apr-22 16:25N 41°22' E 002°11'0 0.0
2016-Apr-22 15:31N 41°22' E 002°11'0 0.0
2016-Apr-21 22:13N 41°22' E 002°11'0 0.0
2016-Apr-21 19:25N 41°22' E 002°11'  
Track history (hours):
 
Tides and Currents Weather Stations Pressure Air Temp Water Temp Dewpoint Dewpoint Depression Visibility Wind Speed Wind Dir Waves Ship Positions

Silver Cloud

Operator: V Ships Leisure SAM

Last reported at 2016-May-01 06:17 UTC. Time now 2016-May-01 08:00 UTC.
Position N 37°50' E 015°17'.

Length 155 m; draft 5.7 m.

Type: Passenger vessel. MMSI: 309027000.

Date/timePositionNaut miles runAvg speedWind from/ knotsBaromVisibWave heightAir tempDewpointWater temp
2016-May-01 06:17N 37°50' E 015°17'0 0.0
2016-May-01 05:29N 37°50' E 015°17'4 4.1
2016-May-01 04:26N 37°52' E 015°22'910.4
2016-May-01 03:33N 37°59' E 015°29'1111.6
2016-May-01 02:33N 38°10' E 015°34'1414.2
2016-May-01 01:33N 38°24' E 015°37'1717.3
2016-May-01 00:33N 38°39' E 015°27'12017.1
2016-Apr-30 17:33N 40°25' E 014°14'92 4.8
2016-Apr-29 22:07N 41°21' E 012°37'814.3
2016-Apr-29 21:33N 41°26' E 012°28'1414.1
2016-Apr-29 20:33N 41°35' E 012°14'1414.1
2016-Apr-29 19:33N 41°46' E 012°02'112 4.8
2016-Apr-28 20:26N 42°50' E 009°58'1416.0
2016-Apr-28 19:34N 43°04' E 010°03'1616.1
2016-Apr-28 18:34N 43°19' E 010°08'1413.7
2016-Apr-28 17:33N 43°32' E 010°15'2 2.3
2016-Apr-28 16:33N 43°33' E 010°18'0 0.0
2016-Apr-28 15:33N 43°33' E 010°18'0 0.0
2016-Apr-28 14:33N 43°33' E 010°18'0 0.0
2016-Apr-28 13:33N 43°33' E 010°18'0 0.0
2016-Apr-28 12:33N 43°33' E 010°18'0 0.0
2016-Apr-28 11:33N 43°33' E 010°18'0 0.0
2016-Apr-28 10:30N 43°33' E 010°18'0 0.0
2016-Apr-28 09:32N 43°33' E 010°18'0 0.0
2016-Apr-28 08:32N 43°33' E 010°18'0 0.0
2016-Apr-28 07:32N 43°33' E 010°18'0 0.0
2016-Apr-28 06:32N 43°33' E 010°18'0 0.4
2016-Apr-28 05:33N 43°33' E 010°18'4 4.4
2016-Apr-28 04:33N 43°30' E 010°13'1010.0
2016-Apr-28 03:33N 43°30' E 009°59'1010.2
2016-Apr-28 02:33N 43°36' E 009°47'1111.0
2016-Apr-28 01:33N 43°45' E 009°38'1111.3
2016-Apr-28 00:33N 43°53' E 009°28'1111.0
2016-Apr-27 23:33N 44°02' E 009°18'1110.9
2016-Apr-27 22:33N 44°10' E 009°09'1111.0
2016-Apr-27 21:33N 44°19' E 008°59'6 5.9
2016-Apr-27 20:28N 44°25' E 008°55'0 0.0
2016-Apr-27 19:22N 44°25' E 008°55'0 0.0
2016-Apr-27 18:31N 44°25' E 008°55'0 0.0
2016-Apr-27 17:31N 44°25' E 008°55'0 0.0
2016-Apr-27 16:28N 44°25' E 008°55'0 0.0
2016-Apr-27 15:10N 44°25' E 008°55'0 0.0
2016-Apr-27 14:28N 44°25' E 008°55'0 0.0
2016-Apr-27 13:16N 44°25' E 008°55'0 0.0
2016-Apr-27 12:22N 44°25' E 008°55'0 0.0
2016-Apr-27 11:28N 44°25' E 008°55'0 0.0
2016-Apr-27 10:22N 44°25' E 008°55'0 0.0
2016-Apr-27 09:28N 44°25' E 008°55'0 0.0
2016-Apr-27 08:28N 44°25' E 008°55'0 0.0
2016-Apr-27 07:16N 44°25' E 008°55'0 0.0
2016-Apr-27 06:28N 44°25' E 008°55'0 0.0
2016-Apr-27 04:16N 44°25' E 008°55'0 0.0
2016-Apr-27 03:25N 44°25' E 008°55'0 0.0
2016-Apr-27 02:31N 44°25' E 008°55'0 0.0
2016-Apr-27 01:28N 44°25' E 008°55'0 0.0
2016-Apr-27 00:22N 44°25' E 008°55'0 0.0
2016-Apr-26 23:28N 44°25' E 008°55'0 0.0
2016-Apr-26 22:31N 44°25' E 008°55'0 0.0
2016-Apr-26 21:31N 44°25' E 008°55'0 0.0
2016-Apr-26 20:31N 44°25' E 008°55'0 0.0
2016-Apr-26 19:34N 44°25' E 008°55'0 0.0
2016-Apr-26 18:34N 44°25' E 008°55'0 0.0
2016-Apr-26 17:27N 44°25' E 008°55'0 0.0
2016-Apr-26 16:24N 44°25' E 008°55'0 0.0
2016-Apr-26 14:30N 44°25' E 008°55'0 0.0
2016-Apr-26 13:33N 44°25' E 008°55'0 0.0
2016-Apr-26 12:27N 44°25' E 008°55'0 0.0
2016-Apr-26 11:24N 44°25' E 008°55'0 0.0
2016-Apr-26 10:18N 44°25' E 008°55'0 0.0
2016-Apr-26 09:33N 44°25' E 008°55'0 0.0
2016-Apr-26 08:33N 44°25' E 008°55'0 0.0
2016-Apr-26 07:21N 44°25' E 008°55'0 0.0
2016-Apr-26 06:27N 44°25' E 008°55'0 0.0
2016-Apr-26 05:33N 44°25' E 008°55'6 5.6
2016-Apr-26 04:33N 44°20' E 008°59'7 7.3
2016-Apr-26 03:33N 44°14' E 008°53'7 7.0
2016-Apr-26 02:34N 44°09' E 008°46'6 6.0
2016-Apr-26 01:33N 44°06' E 008°38'48 6.6
2016-Apr-25 18:15N 43°44' E 007°39'4 6.3
2016-Apr-25 17:33N 43°44' E 007°33'4 4.0
2016-Apr-25 16:32N 43°44' E 007°27'1111.4
2016-Apr-25 15:33N 43°34' E 007°20'1413.8
2016-Apr-25 14:33N 43°30' E 007°02'2 2.3
2016-Apr-25 13:34N 43°32' E 007°01'0 0.0
2016-Apr-25 12:31N 43°32' E 007°01'0 0.1
2016-Apr-25 11:31N 43°32' E 007°01'0 0.0
2016-Apr-25 10:30N 43°32' E 007°01'0 0.0
2016-Apr-25 09:18N 43°32' E 007°01'0 0.0
2016-Apr-25 08:30N 43°32' E 007°01'0 0.0
2016-Apr-25 07:30N 43°32' E 007°01'0 0.0
2016-Apr-25 06:30N 43°32' E 007°01'1 0.5
2016-Apr-25 05:34N 43°31' E 007°01'1313.3
2016-Apr-25 04:34N 43°25' E 007°17'7218.1
2016-Apr-25 00:34N 43°13' E 008°55'1817.9
2016-Apr-24 23:33N 43°11' E 009°20'319 7.1
2016-Apr-23 02:30N 39°57' E 003°41'2912.0
2016-Apr-23 00:03N 40°19' E 003°17'612.4
2016-Apr-22 23:34N 40°24' E 003°12'1212.4
2016-Apr-22 22:34N 40°34' E 003°03'1212.0
2016-Apr-22 21:33N 40°43' E 002°52'1212.2
2016-Apr-22 20:33N 40°53' E 002°42'1212.2
2016-Apr-22 19:33N 41°02' E 002°32'1212.1
2016-Apr-22 18:33N 41°12' E 002°22'1212.2
2016-Apr-22 17:33N 41°21' E 002°11'1 1.1
2016-Apr-22 16:25N 41°22' E 002°11'0 0.0
2016-Apr-22 15:31N 41°22' E 002°11'0 0.0
2016-Apr-21 22:13N 41°22' E 002°11'0 0.0
2016-Apr-21 19:25N 41°22' E 002°11'  

Dump ship's entire track history